createdAt,value
2022-08-26T00:00:16.767Z,30.028
2022-08-26T00:05:16.669Z,30.032
2022-08-26T00:10:16.579Z,30.031
2022-08-26T00:15:16.622Z,30.031
2022-08-26T00:20:16.682Z,30.033
2022-08-26T00:25:16.789Z,30.036
2022-08-26T00:30:16.676Z,30.037
2022-08-26T00:35:16.737Z,30.039
2022-08-26T00:40:16.790Z,30.038
2022-08-26T00:45:16.757Z,30.039
2022-08-26T00:50:16.787Z,30.045
2022-08-26T00:55:20.234Z,30.046
2022-08-26T01:00:16.747Z,30.047
2022-08-26T01:05:16.703Z,30.047
2022-08-26T01:10:17.071Z,30.044
2022-08-26T01:15:16.862Z,30.045
2022-08-26T01:20:16.815Z,30.046
2022-08-26T01:25:16.893Z,30.049
2022-08-26T01:30:16.942Z,30.048
2022-08-26T01:35:16.822Z,30.051
2022-08-26T01:40:17.053Z,30.050
2022-08-26T01:45:16.796Z,30.047
2022-08-26T01:50:18.084Z,30.050
2022-08-26T01:55:33.114Z,30.049
2022-08-26T02:00:16.944Z,30.048
2022-08-26T02:05:16.873Z,30.050
2022-08-26T02:10:16.902Z,30.049
2022-08-26T02:15:17.283Z,30.045
2022-08-26T02:20:16.949Z,30.046
2022-08-26T02:25:16.849Z,30.045
2022-08-26T02:30:17.080Z,30.044
2022-08-26T02:35:18.291Z,30.044
2022-08-26T02:40:17.030Z,30.045
2022-08-26T02:45:23.265Z,30.047
2022-08-26T02:50:16.969Z,30.045
2022-08-26T02:55:17.215Z,30.045
2022-08-26T03:00:16.993Z,30.044
2022-08-26T03:05:16.988Z,30.045
2022-08-26T03:10:17.004Z,30.044
2022-08-26T03:15:18.108Z,30.044
2022-08-26T03:20:17.347Z,30.042
2022-08-26T03:25:17.051Z,30.042
2022-08-26T03:30:17.107Z,30.043
2022-08-26T03:35:17.136Z,30.041
2022-08-26T03:40:20.333Z,30.042
2022-08-26T03:45:17.085Z,30.040
2022-08-26T03:50:17.173Z,30.038
2022-08-26T03:55:17.251Z,30.035
2022-08-26T04:00:18.519Z,30.037
2022-08-26T04:05:16.150Z,30.037
2022-08-26T04:10:16.276Z,30.037
2022-08-26T04:15:16.136Z,30.035
2022-08-26T04:20:16.367Z,30.035
2022-08-26T04:25:16.183Z,30.038
2022-08-26T04:30:16.731Z,30.036
2022-08-26T04:35:16.210Z,30.035
2022-08-26T04:40:16.345Z,30.035
2022-08-26T04:45:16.359Z,30.033
2022-08-26T04:50:16.400Z,30.032
2022-08-26T04:55:16.302Z,30.034
2022-08-26T05:00:16.406Z,30.032
2022-08-26T05:05:16.244Z,30.031
2022-08-26T05:10:16.267Z,30.028
2022-08-26T05:15:16.368Z,30.027
2022-08-26T05:20:16.272Z,30.030
2022-08-26T05:25:16.283Z,30.029
2022-08-26T05:30:16.395Z,30.027
2022-08-26T05:35:16.411Z,30.025
2022-08-26T05:40:16.481Z,30.025
2022-08-26T05:45:16.417Z,30.026
2022-08-26T05:50:16.477Z,30.026
2022-08-26T05:55:16.405Z,30.022
2022-08-26T06:00:16.410Z,30.021
2022-08-26T06:05:16.472Z,30.020
2022-08-26T06:10:31.727Z,30.021
2022-08-26T06:15:16.662Z,30.024
2022-08-26T06:20:16.396Z,30.025
2022-08-26T06:25:16.744Z,30.021
2022-08-26T06:30:16.881Z,30.019
2022-08-26T06:35:16.484Z,30.017
2022-08-26T06:40:16.671Z,30.017
2022-08-26T06:45:16.446Z,30.014
2022-08-26T06:50:16.485Z,30.013
2022-08-26T06:55:16.629Z,30.015
2022-08-26T07:00:16.560Z,30.015
2022-08-26T07:05:16.581Z,30.015
2022-08-26T07:10:16.526Z,30.015
2022-08-26T07:15:16.590Z,30.013
2022-08-26T07:20:16.550Z,30.015
2022-08-26T07:25:16.730Z,30.018
2022-08-26T07:30:16.547Z,30.019
2022-08-26T07:35:16.622Z,30.016
2022-08-26T07:40:17.071Z,30.014
2022-08-26T07:45:16.657Z,30.012
2022-08-26T07:50:16.762Z,30.007
2022-08-26T07:55:16.744Z,30.007
2022-08-26T08:00:16.637Z,30.009
2022-08-26T08:05:16.820Z,30.010
2022-08-26T08:10:16.790Z,30.011
2022-08-26T08:15:16.688Z,30.008
2022-08-26T08:20:16.683Z,30.012
2022-08-26T08:25:16.765Z,30.012
2022-08-26T08:30:20.835Z,30.012
2022-08-26T08:35:16.691Z,30.013
2022-08-26T08:40:16.926Z,30.010
2022-08-26T08:45:16.791Z,30.013
2022-08-26T08:50:16.770Z,30.012
2022-08-26T08:55:18.259Z,30.012
2022-08-26T09:00:16.955Z,30.012
2022-08-26T09:05:16.855Z,30.009
2022-08-26T09:10:16.930Z,30.009
2022-08-26T09:15:16.865Z,30.010
2022-08-26T09:20:16.831Z,30.007
2022-08-26T09:25:17.074Z,30.008
2022-08-26T09:30:16.851Z,30.006
2022-08-26T09:35:17.110Z,30.008
2022-08-26T09:40:17.071Z,30.007
2022-08-26T09:45:17.066Z,30.009
2022-08-26T09:50:16.920Z,30.010
2022-08-26T09:55:16.883Z,30.011
2022-08-26T10:00:17.070Z,30.009
2022-08-26T10:05:16.895Z,30.008
2022-08-26T10:10:16.928Z,30.009
2022-08-26T10:15:16.953Z,30.008
2022-08-26T10:20:22.623Z,30.009
2022-08-26T10:25:17.079Z,30.007
2022-08-26T10:30:17.023Z,30.009
2022-08-26T10:35:17.025Z,30.008
2022-08-26T10:40:17.259Z,30.009
2022-08-26T10:45:17.088Z,30.006
2022-08-26T10:50:18.145Z,30.010
2022-08-26T10:55:17.098Z,30.011
2022-08-26T11:00:17.240Z,30.009
2022-08-26T11:05:17.042Z,30.010
2022-08-26T11:10:17.197Z,30.010
2022-08-26T11:15:17.099Z,30.009
2022-08-26T11:20:17.211Z,30.008
2022-08-26T11:25:18.217Z,30.007
2022-08-26T11:30:18.473Z,30.005
2022-08-26T11:35:17.162Z,30.004
2022-08-26T11:40:17.186Z,30.003
2022-08-26T11:45:17.203Z,30.004
2022-08-26T11:50:15.531Z,30.003
2022-08-26T11:55:17.246Z,30.004
2022-08-26T12:00:20.934Z,30.003
2022-08-26T12:05:17.240Z,30.004
2022-08-26T12:10:17.227Z,30.002
2022-08-26T12:15:17.181Z,30.002
2022-08-26T12:20:17.360Z,29.999
2022-08-26T12:25:17.373Z,29.998
2022-08-26T12:30:19.183Z,30.000
2022-08-26T12:35:17.332Z,30.004
2022-08-26T12:40:17.395Z,30.003
2022-08-26T12:45:17.490Z,30.002
2022-08-26T12:50:17.283Z,30.002
2022-08-26T12:55:17.296Z,30.004
2022-08-26T13:00:17.349Z,30.004
2022-08-26T13:05:17.326Z,30.002
2022-08-26T13:10:17.367Z,29.999
2022-08-26T13:15:17.400Z,29.998
2022-08-26T13:20:17.691Z,29.997
2022-08-26T13:25:15.403Z,29.995
2022-08-26T13:30:15.361Z,29.996
2022-08-26T13:35:15.664Z,29.995
2022-08-26T13:40:15.534Z,29.997
2022-08-26T13:45:15.489Z,29.998
2022-08-26T13:50:15.479Z,29.997
2022-08-26T13:55:15.463Z,29.994
2022-08-26T14:00:15.500Z,29.997
2022-08-26T14:05:15.439Z,29.991
2022-08-26T14:10:15.518Z,29.994
2022-08-26T14:15:15.510Z,29.992
2022-08-26T14:20:15.550Z,29.991
2022-08-26T14:25:15.543Z,29.987
2022-08-26T14:30:15.562Z,29.988
2022-08-26T14:35:15.538Z,29.987
2022-08-26T14:40:15.599Z,29.985
2022-08-26T14:45:15.529Z,29.984
2022-08-26T14:50:15.556Z,29.983
2022-08-26T14:55:15.571Z,29.982
2022-08-26T15:00:15.708Z,29.982
2022-08-26T15:05:15.717Z,29.980
2022-08-26T15:10:15.594Z,29.982
2022-08-26T15:15:15.612Z,29.980
2022-08-26T15:20:15.859Z,29.980
2022-08-26T15:25:15.655Z,29.980
2022-08-26T15:30:15.655Z,29.977
2022-08-26T15:35:15.810Z,29.973
2022-08-26T15:40:15.827Z,29.971
2022-08-26T15:45:25.874Z,29.973
2022-08-26T15:50:15.755Z,29.972
2022-08-26T15:55:15.705Z,29.968
2022-08-26T16:00:15.804Z,29.968
2022-08-26T16:05:15.858Z,29.965
2022-08-26T16:10:15.773Z,29.965
2022-08-26T16:15:15.766Z,29.962
2022-08-26T16:20:15.748Z,29.960
2022-08-26T16:25:15.923Z,29.962
2022-08-26T16:30:16.052Z,29.958
2022-08-26T16:35:15.950Z,29.958
2022-08-26T16:40:15.957Z,29.955
2022-08-26T16:45:15.866Z,29.952
2022-08-26T16:50:16.025Z,29.949
2022-08-26T16:55:15.825Z,29.947
2022-08-26T17:00:15.930Z,29.941
2022-08-26T17:05:15.920Z,29.939
2022-08-26T17:10:15.879Z,29.937
2022-08-26T17:15:16.123Z,29.934
2022-08-26T17:20:15.933Z,29.930
2022-08-26T17:25:15.870Z,29.925
2022-08-26T17:30:15.995Z,29.924
2022-08-26T17:35:16.011Z,29.921
2022-08-26T17:40:15.991Z,29.920
2022-08-26T17:45:16.091Z,29.920
2022-08-26T17:50:15.968Z,29.911
2022-08-26T17:55:16.060Z,29.911
2022-08-26T18:00:17.110Z,29.907
2022-08-26T18:05:15.967Z,29.904
2022-08-26T18:10:16.049Z,29.902
2022-08-26T18:15:16.009Z,29.898
2022-08-26T18:20:16.113Z,29.894
2022-08-26T18:25:16.035Z,29.894
2022-08-26T18:30:16.855Z,29.890
2022-08-26T18:35:16.087Z,29.887
2022-08-26T18:40:16.262Z,29.882
2022-08-26T18:45:16.542Z,29.884
2022-08-26T18:50:16.068Z,29.882
2022-08-26T18:55:16.103Z,29.881
2022-08-26T19:00:16.105Z,29.883
2022-08-26T19:05:16.246Z,29.887
2022-08-26T19:10:16.130Z,29.883
2022-08-26T19:15:16.118Z,29.878
2022-08-26T19:20:16.172Z,29.875
2022-08-26T19:25:16.258Z,29.867
2022-08-26T19:30:16.192Z,29.869
2022-08-26T19:35:16.135Z,29.868
2022-08-26T19:40:16.225Z,29.868
2022-08-26T19:45:24.683Z,29.867
2022-08-26T19:50:16.183Z,29.864
2022-08-26T19:55:16.221Z,29.865
2022-08-26T20:00:16.247Z,29.869
2022-08-26T20:05:16.315Z,29.875
2022-08-26T20:10:16.356Z,29.878
2022-08-26T20:15:16.403Z,29.873
2022-08-26T20:20:33.463Z,29.878
2022-08-26T20:25:16.373Z,29.883
2022-08-26T20:30:16.423Z,29.883
2022-08-26T20:35:16.331Z,29.876
2022-08-26T20:40:16.521Z,29.879
2022-08-26T20:45:16.671Z,29.880
2022-08-26T20:50:16.877Z,29.882
2022-08-26T20:55:16.439Z,29.886
2022-08-26T21:00:16.380Z,29.889
2022-08-26T21:05:16.567Z,29.892
2022-08-26T21:10:16.450Z,29.891
2022-08-26T21:15:16.416Z,29.894
2022-08-26T21:20:16.500Z,29.892
2022-08-26T21:25:16.471Z,29.886
2022-08-26T21:30:16.667Z,29.888
2022-08-26T21:35:16.531Z,29.887
2022-08-26T21:40:16.550Z,29.889
2022-08-26T21:45:16.647Z,29.892
2022-08-26T21:50:16.496Z,29.906
2022-08-26T21:55:16.498Z,29.910
2022-08-26T22:00:16.604Z,29.916
2022-08-26T22:05:16.638Z,29.915
2022-08-26T22:10:16.497Z,29.913
2022-08-26T22:15:16.567Z,29.912
2022-08-26T22:20:16.899Z,29.910
2022-08-26T22:25:16.612Z,29.908
2022-08-26T22:30:16.721Z,29.914
2022-08-26T22:35:29.348Z,29.913
2022-08-26T22:40:16.786Z,29.916
2022-08-26T22:45:16.771Z,29.918
2022-08-26T22:50:16.663Z,29.923
2022-08-26T22:55:16.621Z,29.924
2022-08-26T23:00:16.780Z,29.923
2022-08-26T23:05:16.621Z,29.924
2022-08-26T23:10:16.678Z,29.930
2022-08-26T23:15:16.635Z,29.931
2022-08-26T23:20:16.690Z,29.926
2022-08-26T23:25:16.710Z,29.926
2022-08-26T23:30:16.741Z,29.928
2022-08-26T23:35:16.888Z,29.931
2022-08-26T23:40:16.873Z,29.931
2022-08-26T23:45:16.734Z,29.931
2022-08-26T23:50:16.736Z,29.927
2022-08-26T23:55:16.862Z,29.929
